createdAt,value
2018-05-24T00:02:23.753Z,12.40
2018-05-24T00:04:51.309Z,10.43
2018-05-24T00:07:18.864Z,9.43
2018-05-24T00:09:46.480Z,9.67
2018-05-24T00:12:14.035Z,10.20
2018-05-24T00:14:41.610Z,12.03
2018-05-24T00:17:09.173Z,14.27
2018-05-24T00:19:36.783Z,10.33
2018-05-24T00:22:04.345Z,11.23
2018-05-24T00:24:31.893Z,10.30
2018-05-24T00:26:59.494Z,9.10
2018-05-24T00:29:27.063Z,12.17
2018-05-24T00:31:55.403Z,11.60
2018-05-24T00:34:22.994Z,11.87
2018-05-24T00:36:50.551Z,9.23
2018-05-24T00:39:18.104Z,13.90
2018-05-24T00:41:45.659Z,11.27
2018-05-24T00:44:13.956Z,14.83
2018-05-24T00:46:42.311Z,12.40
2018-05-24T00:49:09.867Z,17.43
2018-05-24T00:51:37.452Z,15.60
2018-05-24T00:54:04.999Z,17.27
2018-05-24T00:56:32.612Z,8.60
2018-05-24T00:59:00.169Z,15.80
2018-05-24T01:01:27.724Z,14.63
2018-05-24T01:03:55.320Z,11.30
2018-05-24T01:06:22.916Z,10.23
2018-05-24T01:08:50.491Z,7.87
2018-05-24T01:11:18.826Z,8.07
2018-05-24T01:13:46.403Z,13.50
2018-05-24T01:16:13.990Z,13.17
2018-05-24T01:18:41.593Z,6.53
2018-05-24T01:21:09.169Z,6.90
2018-05-24T01:23:37.524Z,10.03
2018-05-24T01:26:05.099Z,7.70
2018-05-24T01:28:32.712Z,8.83
2018-05-24T01:31:01.010Z,7.10
2018-05-24T01:33:28.566Z,5.90
2018-05-24T01:35:56.108Z,8.33
2018-05-24T01:38:23.668Z,7.00
2018-05-24T01:40:51.222Z,6.03
2018-05-24T01:43:18.854Z,5.80
2018-05-24T01:45:47.168Z,11.40
2018-05-24T01:48:14.708Z,6.60
2018-05-24T01:50:42.256Z,7.43
2018-05-24T01:53:09.826Z,6.10
2018-05-24T01:55:37.447Z,9.93
2018-05-24T01:58:05.782Z,6.37
2018-05-24T02:00:33.296Z,7.70
2018-05-24T02:03:00.876Z,5.23
2018-05-24T02:05:29.208Z,6.07
2018-05-24T02:07:56.824Z,8.27
2018-05-24T02:10:24.361Z,7.30
2018-05-24T02:12:51.895Z,7.83
2018-05-24T02:15:20.210Z,8.03
2018-05-24T02:17:47.768Z,7.83
2018-05-24T02:20:15.344Z,7.77
2018-05-24T02:22:42.937Z,9.07
2018-05-24T02:25:10.493Z,7.60
2018-05-24T02:27:38.077Z,8.40
2018-05-24T02:30:05.764Z,14.73
2018-05-24T02:32:33.346Z,13.27
2018-05-24T02:35:00.927Z,15.30
2018-05-24T02:37:28.470Z,17.40
2018-05-24T02:39:56.022Z,10.77
2018-05-24T02:42:23.590Z,13.00
2018-05-24T02:44:51.167Z,5.80
2018-05-24T02:47:18.864Z,9.90
2018-05-24T02:49:47.137Z,7.27
2018-05-24T02:52:14.697Z,7.60
2018-05-24T02:54:42.266Z,7.00
2018-05-24T02:57:10.595Z,10.67
2018-05-24T02:59:38.151Z,8.77
2018-05-24T03:02:05.673Z,6.03
2018-05-24T03:04:33.275Z,9.93
2018-05-24T03:07:00.877Z,5.50
2018-05-24T03:09:28.445Z,8.20
2018-05-24T03:11:55.988Z,10.40
2018-05-24T03:14:24.395Z,7.33
2018-05-24T03:16:52.676Z,7.90
2018-05-24T03:19:20.208Z,9.83
2018-05-24T03:21:47.741Z,13.60
2018-05-24T03:24:15.332Z,8.60
2018-05-24T03:26:42.940Z,7.40
2018-05-24T03:29:11.297Z,17.93
2018-05-24T03:31:38.826Z,11.23
2018-05-24T03:34:06.368Z,13.00
2018-05-24T03:36:33.919Z,5.30
2018-05-24T03:39:01.474Z,12.37
2018-05-24T03:41:29.036Z,8.10
2018-05-24T03:43:56.640Z,8.10
2018-05-24T03:46:24.304Z,8.70
2018-05-24T03:48:52.020Z,10.20
2018-05-24T03:51:19.756Z,11.10
2018-05-24T03:53:47.294Z,6.90
2018-05-24T03:56:14.866Z,21.07
2018-05-24T03:58:42.381Z,8.10
2018-05-24T04:04:29.088Z,15.63
2018-05-24T04:06:56.646Z,13.80
2018-05-24T04:09:24.948Z,13.83
2018-05-24T04:11:52.551Z,14.77
2018-05-24T04:14:20.093Z,9.63
2018-05-24T04:16:47.632Z,10.87
2018-05-24T04:19:15.334Z,14.97
2018-05-24T04:21:43.645Z,12.20
2018-05-24T04:24:11.208Z,11.63
2018-05-24T04:26:38.752Z,18.50
2018-05-24T04:29:07.102Z,10.83
2018-05-24T04:31:34.627Z,10.33
2018-05-24T04:34:02.897Z,14.30
2018-05-24T04:36:30.492Z,13.53
2018-05-24T04:38:58.829Z,7.40
2018-05-24T04:41:26.483Z,9.77
2018-05-24T04:43:54.021Z,15.23
2018-05-24T04:46:22.371Z,10.90
2018-05-24T04:48:49.884Z,7.27
2018-05-24T04:51:18.199Z,5.90
2018-05-24T04:53:45.733Z,10.03
2018-05-24T04:56:13.433Z,8.93
2018-05-24T04:58:40.956Z,9.60
2018-05-24T05:01:08.640Z,8.50
2018-05-24T05:03:36.170Z,7.47
2018-05-24T05:06:03.724Z,7.97
2018-05-24T05:08:31.240Z,14.07
2018-05-24T05:10:58.842Z,14.40
2018-05-24T05:13:26.480Z,8.00
2018-05-24T05:15:54.012Z,12.00
2018-05-24T05:18:22.313Z,14.73
2018-05-24T05:20:49.859Z,12.83
2018-05-24T05:23:18.139Z,19.47
2018-05-24T05:25:46.516Z,16.70
2018-05-24T05:28:14.029Z,9.50
2018-05-24T05:30:41.649Z,14.50
2018-05-24T05:33:09.857Z,13.33
2018-05-24T05:35:37.425Z,16.30
2018-05-24T05:38:04.953Z,12.13
2018-05-24T05:40:32.483Z,12.17
2018-05-24T05:43:00.780Z,12.00
2018-05-24T05:45:29.100Z,13.83
2018-05-24T05:47:56.636Z,10.03
2018-05-24T05:50:24.140Z,9.43
2018-05-24T05:52:51.714Z,11.10
2018-05-24T05:55:19.211Z,13.60
2018-05-24T05:57:46.785Z,12.83
2018-05-24T06:00:14.303Z,15.07
2018-05-24T06:02:41.845Z,11.03
2018-05-24T06:05:09.397Z,18.67
2018-05-24T06:07:36.956Z,16.03
2018-05-24T06:10:04.492Z,16.30
2018-05-24T06:12:32.801Z,11.67
2018-05-24T06:15:00.311Z,12.77
2018-05-24T06:17:27.844Z,18.10
2018-05-24T06:19:55.364Z,22.23
2018-05-24T06:22:22.906Z,25.40
2018-05-24T06:24:50.432Z,17.70
2018-05-24T06:27:18.812Z,25.20
2018-05-24T06:29:46.705Z,31.27
2018-05-24T06:32:15.002Z,20.33
2018-05-24T06:34:43.396Z,17.73
2018-05-24T06:37:11.765Z,16.53
2018-05-24T06:39:39.328Z,15.17
2018-05-24T06:42:06.925Z,17.07
2018-05-24T06:44:34.517Z,17.73
2018-05-24T06:47:02.166Z,13.63
2018-05-24T06:49:29.728Z,23.30
2018-05-24T06:51:57.303Z,17.30
2018-05-24T06:54:24.839Z,15.30
2018-05-24T06:56:52.362Z,14.13
2018-05-24T06:59:20.688Z,11.60
2018-05-24T07:01:48.280Z,15.43
2018-05-24T07:04:15.833Z,21.83
2018-05-24T07:06:43.354Z,15.43
2018-05-24T07:09:11.652Z,26.63
2018-05-24T07:11:39.963Z,19.20
2018-05-24T07:14:07.491Z,19.50
2018-05-24T07:16:35.020Z,23.40
2018-05-24T07:19:02.610Z,20.27
2018-05-24T07:21:30.119Z,15.67
2018-05-24T07:23:58.426Z,26.83
2018-05-24T07:26:26.696Z,36.07
2018-05-24T07:28:55.078Z,41.63
2018-05-24T07:31:22.610Z,51.57
2018-05-24T07:33:50.141Z,47.03
2018-05-24T07:36:18.433Z,27.90
2018-05-24T07:38:47.043Z,23.87
2018-05-24T07:41:14.617Z,25.20
2018-05-24T07:43:42.144Z,24.47
2018-05-24T07:46:09.662Z,20.53
2018-05-24T07:48:37.212Z,14.33
2018-05-24T07:51:05.517Z,14.03
2018-05-24T07:53:33.062Z,12.57
2018-05-24T07:56:00.581Z,13.97
2018-05-24T07:58:28.166Z,24.93
2018-05-24T08:00:55.705Z,22.03
2018-05-24T08:03:23.274Z,19.70
2018-05-24T08:05:51.575Z,16.57
2018-05-24T08:08:19.163Z,14.27
2018-05-24T08:10:46.694Z,14.20
2018-05-24T08:13:14.985Z,16.93
2018-05-24T08:15:43.350Z,15.83
2018-05-24T08:18:10.855Z,20.43
2018-05-24T08:20:39.187Z,14.43
2018-05-24T08:23:06.721Z,12.00
2018-05-24T08:25:35.060Z,17.83
2018-05-24T08:28:02.571Z,13.90
2018-05-24T08:30:30.866Z,15.67
2018-05-24T08:32:59.152Z,11.07
2018-05-24T08:35:27.461Z,13.10
2018-05-24T08:37:54.973Z,8.33
2018-05-24T08:40:22.527Z,12.47
2018-05-24T08:42:50.068Z,9.00
2018-05-24T08:45:17.644Z,13.00
2018-05-24T08:47:45.157Z,14.63
2018-05-24T08:50:12.700Z,9.33
2018-05-24T08:52:40.219Z,10.23
2018-05-24T08:55:07.763Z,8.43
2018-05-24T08:57:35.316Z,5.30
2018-05-24T09:00:02.910Z,5.67
2018-05-24T09:02:30.408Z,6.50
2018-05-24T09:04:57.944Z,7.40
2018-05-24T09:07:25.464Z,5.97
2018-05-24T09:09:53.775Z,5.80
2018-05-24T09:12:22.320Z,6.23
2018-05-24T09:14:49.850Z,6.47
2018-05-24T09:17:17.365Z,6.63
2018-05-24T09:19:44.956Z,12.23
2018-05-24T09:22:13.593Z,11.20
2018-05-24T09:24:41.125Z,10.60
2018-05-24T09:27:08.748Z,9.07
2018-05-24T09:29:36.337Z,12.00
2018-05-24T09:32:04.003Z,25.67
2018-05-24T09:34:31.556Z,19.10
2018-05-24T09:36:59.103Z,17.13
2018-05-24T09:39:27.416Z,16.23
2018-05-24T09:41:54.941Z,17.77
2018-05-24T09:44:22.490Z,22.73
2018-05-24T09:46:50.049Z,15.27
2018-05-24T09:49:17.701Z,12.53
2018-05-24T09:51:45.240Z,13.30
2018-05-24T09:54:13.520Z,13.67
2018-05-24T09:56:41.086Z,11.10
2018-05-24T09:59:08.772Z,16.90
2018-05-24T10:01:36.385Z,14.00
2018-05-24T10:04:03.962Z,24.27
2018-05-24T10:06:31.652Z,13.70
2018-05-24T10:08:59.403Z,14.50
2018-05-24T10:11:27.018Z,10.33
2018-05-24T10:13:54.933Z,9.23
2018-05-24T10:16:22.541Z,13.93
2018-05-24T10:18:50.085Z,10.53
2018-05-24T10:21:18.582Z,10.53
2018-05-24T10:23:47.707Z,11.90
2018-05-24T10:26:15.510Z,10.63
2018-05-24T10:28:43.088Z,13.10
2018-05-24T10:31:10.617Z,10.00
2018-05-24T10:33:38.965Z,11.60
2018-05-24T10:36:06.521Z,9.07
2018-05-24T10:38:34.049Z,12.40
2018-05-24T10:41:01.616Z,9.53
2018-05-24T10:43:30.027Z,9.50
2018-05-24T10:45:57.593Z,10.20
2018-05-24T10:48:25.897Z,10.10
2018-05-24T10:50:53.461Z,9.80
2018-05-24T10:53:20.980Z,11.53
2018-05-24T10:55:48.534Z,10.10
2018-05-24T10:58:16.157Z,14.57
2018-05-24T11:00:44.447Z,9.57
2018-05-24T11:03:12.852Z,11.03
2018-05-24T11:05:40.345Z,14.83
2018-05-24T11:08:08.271Z,10.03
2018-05-24T11:10:36.192Z,20.17
2018-05-24T11:13:03.725Z,22.90
2018-05-24T11:15:31.303Z,11.53
2018-05-24T11:18:00.452Z,10.37
2018-05-24T11:20:27.966Z,9.30
2018-05-24T11:22:55.514Z,11.10
2018-05-24T11:25:23.052Z,10.57
2018-05-24T11:27:51.397Z,10.00
2018-05-24T11:30:18.954Z,13.43
2018-05-24T11:32:46.506Z,12.00
2018-05-24T11:35:14.048Z,13.33
2018-05-24T11:37:42.355Z,10.77
2018-05-24T11:40:09.861Z,13.77
2018-05-24T11:42:37.429Z,12.10
2018-05-24T11:45:04.992Z,12.53
2018-05-24T11:47:32.684Z,10.33
2018-05-24T11:50:00.336Z,10.93
2018-05-24T11:52:27.877Z,13.93
2018-05-24T11:54:56.152Z,19.67
2018-05-24T11:57:23.677Z,12.90
2018-05-24T11:59:51.430Z,19.23
2018-05-24T12:02:19.129Z,13.80
2018-05-24T12:04:46.757Z,12.20
2018-05-24T12:07:15.286Z,19.93
2018-05-24T12:09:43.256Z,14.97
2018-05-24T12:12:11.133Z,11.90
2018-05-24T12:14:38.696Z,10.70
2018-05-24T12:17:06.991Z,10.20
2018-05-24T12:19:34.570Z,9.50
2018-05-24T12:22:02.110Z,11.07
2018-05-24T12:24:29.731Z,9.23
2018-05-24T12:26:57.496Z,9.83
2018-05-24T12:29:25.103Z,11.13
2018-05-24T12:31:52.745Z,9.67
2018-05-24T12:34:20.441Z,10.60
2018-05-24T12:36:47.998Z,10.43
2018-05-24T12:39:15.559Z,10.60
2018-05-24T12:41:43.195Z,11.63
2018-05-24T12:44:10.741Z,12.33
2018-05-24T12:46:38.485Z,18.80
2018-05-24T12:49:07.495Z,14.63
2018-05-24T12:51:35.373Z,18.93
2018-05-24T12:54:02.998Z,13.53
2018-05-24T12:56:31.482Z,13.63
2018-05-24T12:58:59.049Z,12.50
2018-05-24T13:01:26.624Z,11.40
2018-05-24T13:03:54.459Z,10.37
2018-05-24T13:06:22.216Z,11.93
2018-05-24T13:08:50.632Z,11.70
2018-05-24T13:11:18.219Z,10.83
2018-05-24T13:13:45.775Z,11.13
2018-05-24T13:16:14.398Z,12.37
2018-05-24T13:18:42.455Z,8.53
2018-05-24T13:21:10.029Z,7.60
2018-05-24T13:23:37.737Z,12.17
2018-05-24T13:26:05.252Z,12.23
2018-05-24T13:28:33.924Z,9.50
2018-05-24T13:31:01.678Z,6.77
2018-05-24T13:33:30.145Z,6.87
2018-05-24T13:35:57.788Z,7.40
2018-05-24T13:38:27.537Z,28.33
2018-05-24T13:40:55.877Z,10.97
2018-05-24T13:43:23.437Z,12.03
2018-05-24T13:45:52.264Z,12.43
2018-05-24T13:48:21.425Z,10.80
2018-05-24T13:50:52.270Z,11.17
2018-05-24T13:53:20.257Z,10.17
2018-05-24T13:55:48.097Z,8.33
2018-05-24T15:20:24.939Z,16.87
2018-05-24T15:22:52.499Z,18.80
2018-05-24T15:25:20.065Z,15.00
2018-05-24T15:27:47.621Z,20.57
2018-05-24T15:30:15.202Z,20.33
2018-05-24T15:32:42.752Z,19.33
2018-05-24T15:35:10.403Z,18.00
2018-05-24T15:37:38.708Z,18.03
2018-05-24T15:40:06.290Z,16.80
2018-05-24T15:42:33.837Z,22.20
2018-05-24T15:45:01.377Z,22.43
2018-05-24T15:47:28.982Z,25.00
2018-05-24T15:49:56.583Z,28.00
2018-05-24T15:52:24.147Z,24.97
2018-05-24T15:54:51.717Z,31.03
2018-05-24T15:57:19.995Z,30.50
2018-05-24T15:59:48.283Z,31.97
2018-05-24T16:02:16.585Z,30.77
2018-05-24T16:04:44.876Z,29.07
2018-05-24T16:07:13.297Z,20.37
2018-05-24T16:09:40.809Z,24.00
2018-05-24T16:12:08.341Z,25.33
2018-05-24T16:14:35.901Z,30.13
2018-05-24T16:17:03.449Z,23.10
2018-05-24T16:19:31.727Z,25.73
2018-05-24T16:22:00.052Z,25.97
2018-05-24T16:24:27.568Z,27.83
2018-05-24T16:26:55.092Z,29.70
2018-05-24T16:29:22.615Z,28.57
2018-05-24T16:31:50.225Z,32.40
2018-05-24T16:34:17.769Z,40.17
2018-05-24T16:36:45.335Z,33.50
2018-05-24T16:39:12.861Z,32.37
2018-05-24T16:41:40.388Z,33.97
2018-05-24T16:44:08.014Z,24.90
2018-05-24T16:46:35.580Z,35.17
2018-05-24T16:49:03.099Z,22.00
2018-05-24T16:51:30.724Z,25.57
2018-05-24T16:53:58.241Z,19.87
2018-05-24T16:56:25.949Z,20.07
2018-05-24T16:58:53.460Z,20.50
2018-05-24T17:01:20.997Z,21.73
2018-05-24T17:03:48.532Z,18.60
2018-05-24T17:06:16.061Z,19.13
2018-05-24T17:08:43.575Z,17.80
2018-05-24T17:11:11.105Z,17.17
2018-05-24T17:13:38.745Z,22.50
2018-05-24T17:16:07.120Z,15.80
2018-05-24T17:18:34.708Z,15.70
2018-05-24T17:21:03.023Z,15.70
2018-05-24T17:23:30.568Z,16.13
2018-05-24T17:25:58.873Z,12.60
2018-05-24T17:28:26.431Z,12.07
2018-05-24T17:30:53.916Z,10.20
2018-05-24T17:33:21.486Z,11.87
2018-05-24T17:35:48.995Z,10.60
2018-05-24T17:38:16.520Z,11.00
2018-05-24T17:40:44.906Z,12.23
2018-05-24T17:43:13.205Z,11.20
2018-05-24T17:45:40.788Z,10.33
2018-05-24T17:48:08.308Z,12.50
2018-05-24T17:50:35.806Z,9.63
2018-05-24T17:53:04.141Z,11.00
2018-05-24T17:55:31.672Z,9.00
2018-05-24T17:57:59.961Z,8.93
2018-05-24T18:00:28.257Z,9.60
2018-05-24T18:02:56.549Z,9.70
2018-05-24T18:05:24.051Z,8.37
2018-05-24T18:07:51.572Z,10.10
2018-05-24T18:10:19.083Z,9.17
2018-05-24T18:12:46.609Z,7.63
2018-05-24T18:15:14.130Z,9.53
2018-05-24T18:17:41.666Z,12.23
2018-05-24T18:20:09.966Z,9.57
2018-05-24T18:22:37.500Z,8.77
2018-05-24T18:25:05.039Z,9.03
2018-05-24T18:27:32.621Z,8.80
2018-05-24T18:30:00.337Z,10.67
2018-05-24T18:32:27.852Z,9.57
2018-05-24T18:34:55.387Z,8.80
2018-05-24T18:37:23.699Z,15.80
2018-05-24T18:39:51.236Z,9.10
2018-05-24T18:42:18.787Z,8.87
2018-05-24T18:44:46.313Z,9.07
2018-05-24T18:47:13.874Z,7.57
2018-05-24T18:49:42.178Z,9.07
2018-05-24T18:52:09.735Z,9.00
2018-05-24T18:54:38.079Z,9.00
2018-05-24T18:57:05.595Z,9.60
2018-05-24T18:59:33.923Z,10.67
2018-05-24T19:02:01.425Z,8.33
2018-05-24T19:04:28.980Z,9.60
2018-05-24T19:06:56.499Z,10.07
2018-05-24T19:09:24.805Z,9.20
2018-05-24T19:11:52.373Z,8.53
2018-05-24T19:14:19.931Z,9.33
2018-05-24T19:16:48.203Z,8.67
2018-05-24T19:19:15.793Z,9.97
2018-05-24T19:21:44.072Z,8.93
2018-05-24T19:24:12.365Z,11.23
2018-05-24T19:26:40.636Z,9.87
2018-05-24T19:29:08.956Z,10.27
2018-05-24T19:31:36.471Z,11.30
2018-05-24T19:34:04.019Z,11.43
2018-05-24T19:36:31.580Z,12.23
2018-05-24T19:38:59.107Z,11.80
2018-05-24T19:41:26.713Z,12.47
2018-05-24T19:43:55.017Z,10.77
2018-05-24T19:46:22.558Z,13.13
2018-05-24T19:48:50.262Z,12.43
2018-05-24T19:51:17.768Z,11.97
2018-05-24T19:53:45.449Z,11.83
2018-05-24T19:56:13.761Z,12.43
2018-05-24T19:58:41.293Z,12.03
2018-05-24T20:01:08.828Z,11.80
2018-05-24T20:03:37.169Z,13.40
2018-05-24T20:06:04.688Z,13.03
2018-05-24T20:08:32.984Z,13.97
2018-05-24T20:11:01.253Z,12.63
2018-05-24T20:13:29.541Z,13.23
2018-05-24T20:15:57.049Z,15.80
2018-05-24T20:18:24.576Z,11.93
2018-05-24T20:20:52.076Z,12.53
2018-05-24T20:23:19.651Z,14.67
2018-05-24T20:25:47.212Z,13.70
2018-05-24T20:28:15.484Z,11.67
2018-05-24T20:30:43.005Z,14.20
2018-05-24T20:33:10.537Z,14.00
2018-05-24T20:35:38.833Z,13.77
2018-05-24T20:38:07.134Z,13.77
2018-05-24T20:40:34.701Z,12.17
2018-05-24T20:43:02.213Z,13.83
2018-05-24T20:45:29.737Z,15.00
2018-05-24T20:47:58.014Z,14.47
2018-05-24T20:50:26.347Z,14.53
2018-05-24T20:52:53.878Z,14.17
2018-05-24T20:55:21.400Z,15.77
2018-05-24T20:57:48.905Z,13.67
2018-05-24T21:00:16.510Z,15.87
2018-05-24T21:02:44.081Z,14.70
2018-05-24T21:05:11.661Z,15.57
2018-05-24T21:07:40.082Z,16.00
2018-05-24T21:10:07.597Z,18.90
2018-05-24T21:12:35.897Z,16.57
2018-05-24T21:15:04.172Z,16.77
2018-05-24T21:17:31.697Z,16.70
2018-05-24T21:19:59.200Z,17.07
2018-05-24T21:22:26.810Z,17.13
2018-05-24T21:24:55.523Z,16.47
2018-05-24T21:27:23.093Z,19.53
2018-05-24T21:29:50.604Z,19.10
2018-05-24T21:32:18.164Z,19.17
2018-05-24T21:34:45.673Z,20.10
2018-05-24T21:37:13.212Z,19.57
2018-05-24T21:39:40.712Z,20.37
2018-05-24T21:42:08.236Z,19.83
2018-05-24T21:44:35.776Z,21.63
2018-05-24T21:47:04.185Z,19.60
2018-05-24T21:49:31.695Z,20.13
2018-05-24T21:51:59.316Z,20.47
2018-05-24T21:54:27.588Z,21.27
2018-05-24T21:56:55.118Z,22.50
2018-05-24T21:59:22.625Z,24.07
2018-05-24T22:01:50.150Z,23.13
2018-05-24T22:04:17.833Z,22.43
2018-05-24T22:06:45.344Z,23.10
2018-05-24T22:09:12.932Z,22.37
2018-05-24T22:11:41.209Z,23.73
2018-05-24T22:14:08.805Z,21.73
2018-05-24T22:16:36.379Z,25.37
2018-05-24T22:19:03.910Z,24.63
2018-05-24T22:21:31.516Z,23.87
2018-05-24T22:23:59.809Z,23.27
2018-05-24T22:26:28.085Z,26.13
2018-05-24T22:28:56.377Z,24.60
2018-05-24T22:31:24.689Z,24.20
2018-05-24T22:33:52.244Z,23.43
2018-05-24T22:36:20.540Z,24.10
2018-05-24T22:38:48.277Z,24.97
2018-05-24T22:41:15.792Z,27.33
2018-05-24T22:43:43.312Z,25.60
2018-05-24T22:46:10.857Z,25.80
2018-05-24T22:48:38.357Z,26.73
2018-05-24T22:51:06.057Z,25.63
2018-05-24T22:53:33.562Z,26.73
2018-05-24T22:56:01.097Z,27.03
2018-05-24T22:58:29.376Z,24.20
2018-05-24T23:00:56.896Z,28.10
2018-05-24T23:03:24.413Z,26.73
2018-05-24T23:05:51.980Z,26.20
2018-05-24T23:08:19.468Z,26.07
2018-05-24T23:10:46.993Z,26.50
2018-05-24T23:13:14.524Z,28.77
2018-05-24T23:15:42.817Z,27.53
2018-05-24T23:18:11.100Z,24.97
2018-05-24T23:20:39.377Z,30.63
2018-05-24T23:23:06.904Z,28.70
2018-05-24T23:25:34.425Z,29.67
2018-05-24T23:28:02.732Z,27.17
2018-05-24T23:30:30.252Z,27.53
2018-05-24T23:32:57.788Z,28.80
2018-05-24T23:35:25.292Z,29.13
2018-05-24T23:37:52.865Z,25.57
2018-05-24T23:40:20.363Z,31.13
2018-05-24T23:42:47.904Z,26.77
2018-05-24T23:45:15.412Z,32.73
2018-05-24T23:47:42.999Z,29.50
2018-05-24T23:50:11.289Z,30.47
2018-05-24T23:52:39.655Z,26.93
2018-05-24T23:55:07.194Z,30.60
2018-05-24T23:57:34.747Z,27.80
